Decoded Metar for LYBE (BEOGRAD in SERBIA) (IATA:BEG) | Meteo·Mobile Aviation Weather
aviador You're here:

LYBE Decoded Metar

BEOGRAD in SERBIA
Report Time2019-01-18 11:00:00
UTC Time2019-01-18 11:14:55
Flight Rules vfr VFR
Wind340° at 05 kt
W.Decomp.*RWY 30: 4.0 kt HW 3.0 kt RCW
W.Rank340° ranks 18
Current wind is below 340° avg. (6.7)
Visibility9999 m
Phenomena:Light Rain
Clouds:Scattered 040 Hf
Expected CloudBase > 2,800 ft AGL from Temp-Dew spread
CeilingNone
Temp07°C (ISA -7)
Dew Point00°C (61% RH)
AAT3.2°C
QNH1012 hPa
Density Alt-440 ft
Elevation325 ft
Report Wrong Elevation
Raw Report
LYBE 181100Z 34005KT 300V010 9999 -RA SCT040 07/00 Q1012 NOSIG=

Extra information for LYBE:More info

Metar Taf Metar & Taf Last 4 Metars F.Rules Stats Wind Profile Meteogram Temp Stats Airport Information Weather charts Add Link Nearby VenuesMetar ALERT Operation Metar Decoded Social comments